Terminal Aerodrome Forecast
Issued by NWS Anchorage, AK

Home | Current Version | Previous Version | Text Only | Print | Product List | Glossary On
Versions: 1 2 3 4 5 6 7 8 9 10 11 12 13 14 15 16 17 18 19 20 21 22 23 24 25 26 27 28 29 30 31 32 33 34 35
000
FTAK31 PANC 250520
TAFANC
TAF
PANC 250520Z 2506/2612 16006KT P6SM VCSH FEW060 BKN100
     FM251500 VRB04KT P6SM SCT100 BKN180
     FM252300 16009KT P6SM SCT080 BKN150
     FM260800 VRB04KT P6SM BKN100=

USA.gov is the U.S. government's official web portal to all federal, state and local government web resources and services.